TimeEDT,TemperatureF,Dew PointF,Humidity,Sea Level PressureIn,VisibilityMPH,Wind Direction,Wind SpeedMPH,Gust SpeedMPH,PrecipitationIn,Events,Conditions,WindDirDegrees,DateUTC
12:52 AM,30.9,26.1,82,30.13,10.0,Calm,Calm,-,N/A,,Clear,0,2013-05-13 04:52:00
1:52 AM,30.9,26.1,82,30.12,10.0,WSW,4.6,-,N/A,,Clear,250,2013-05-13 05:52:00
2:52 AM,33.1,26.1,75,30.12,10.0,West,3.5,-,N/A,,Mostly Cloudy,260,2013-05-13 06:52:00
3:52 AM,33.1,26.1,75,30.12,10.0,WSW,4.6,-,N/A,,Scattered Clouds,250,2013-05-13 07:52:00
4:52 AM,33.1,25.0,72,30.12,10.0,West,5.8,-,N/A,,Partly Cloudy,280,2013-05-13 08:52:00
5:52 AM,30.9,25.0,79,30.13,10.0,West,3.5,-,N/A,,Clear,280,2013-05-13 09:52:00
6:52 AM,34.0,25.0,70,30.14,10.0,WNW,3.5,-,N/A,,Scattered Clouds,290,2013-05-13 10:52:00
7:52 AM,37.0,26.1,65,30.16,10.0,NW,4.6,-,N/A,,Clear,320,2013-05-13 11:52:00
8:52 AM,41.0,23.0,49,30.18,10.0,North,10.4,-,N/A,,Clear,350,2013-05-13 12:52:00
9:52 AM,44.1,19.0,37,30.19,10.0,NW,9.2,-,N/A,,Clear,310,2013-05-13 13:52:00
10:52 AM,46.0,19.0,34,30.19,10.0,NW,10.4,16.1,N/A,,Clear,320,2013-05-13 14:52:00
11:52 AM,48.9,18.0,29,30.19,10.0,North,8.1,-,N/A,,Clear,350,2013-05-13 15:52:00
12:52 PM,51.1,18.0,27,30.19,10.0,WNW,15.0,21.9,N/A,,Clear,290,2013-05-13 16:52:00
1:52 PM,54.0,17.1,23,30.18,10.0,West,12.7,18.4,N/A,,Partly Cloudy,280,2013-05-13 17:52:00
2:52 PM,55.0,17.1,23,30.17,10.0,NNW,9.2,-,N/A,,Partly Cloudy,330,2013-05-13 18:52:00
4:52 PM,55.9,18.0,23,30.14,10.0,NW,9.2,-,N/A,,Clear,320,2013-05-13 20:52:00
5:52 PM,57.0,17.1,21,30.13,10.0,NW,13.8,18.4,N/A,,Clear,320,2013-05-13 21:52:00
6:52 PM,55.9,17.1,22,30.12,10.0,West,12.7,18.4,N/A,,Clear,280,2013-05-13 22:52:00
7:52 PM,55.4,19.4,25,30.12,10.0,West,5.8,-,N/A,,Clear,280,2013-05-13 23:52:00
8:52 PM,46.9,24.1,41,30.14,10.0,Calm,Calm,-,N/A,,Clear,0,2013-05-14 00:52:00
9:52 PM,42.1,27.0,55,30.14,10.0,Calm,Calm,-,N/A,,Clear,0,2013-05-14 01:52:00
10:52 PM,41.0,28.0,60,30.14,10.0,Calm,Calm,-,N/A,,Clear,0,2013-05-14 02:52:00
11:52 PM,43.0,28.0,56,30.13,10.0,ESE,4.6,-,N/A,,Clear,120,2013-05-14 03:52:00